Terminal Aerodrome Forecast
Issued by NWS Milwaukee/Sullivan, WI

Home | Current Version | Previous Version | Text Only | Print | Product List | Glossary On
Versions: 1 2 3 4 5 6 7 8 9 10 11 12 13 14 15 16 17 18 19 20 21 22 23 24 25 26 27 28 29 30 31 32 33 34 35 36 37 38 39 40 41 42 43 44 45 46 47 48 49 50
998
FTUS43 KMKX 211720
TAFMKE
TAF
KMKE 211720Z 2118/2224 26004KT P6SM SCT250
     FM212000 15007KT P6SM FEW250
     FM220200 19004KT P6SM FEW200
     FM220700 22008KT P6SM FEW200
     FM221700 22012G19KT P6SM FEW200=

USA.gov is the U.S. government's official web portal to all federal, state and local government web resources and services.